Time;durP1;ratioP1;P1;durP2;ratioP2;P2;SDS_P1;SDS_P2;PMS_P1;PMS_P2;Temp;Humidity;BMP_temperature;BMP_pressure;BME280_temperature;BME280_humidity;BME280_pressure;Samples;Min_cycle;Max_cycle;Signal;HPM_P1;HPM_P2
2024/01/07 00:04:24;;;;;;;12.52;9.95;;;;;;;;;;10070916;28;20131;-74
2024/01/07 00:09:16;;;;;;;11.00;9.25;;;;;;;;;;10049529;28;20080;-74
2024/01/07 00:14:08;;;;;;;14.30;10.02;;;;;;;;;;10045005;28;20144;-74
2024/01/07 00:19:00;;;;;;;12.40;9.52;;;;;;;;;;10067609;28;20042;-74
2024/01/07 00:23:52;;;;;;;13.45;11.77;;;;;;;;;;10068079;28;20038;-77
2024/01/07 00:28:44;;;;;;;10.88;8.95;;;;;;;;;;10067119;28;20064;-74
2024/01/07 00:33:37;;;;;;;10.05;7.88;;;;;;;;;;10066907;28;20053;-74
2024/01/07 00:38:29;;;;;;;11.48;9.02;;;;;;;;;;10066944;28;20480;-74
2024/01/07 00:43:21;;;;;;;8.68;7.75;;;;;;;;;;10066863;28;20037;-74
2024/01/07 00:48:14;;;;;;;9.52;7.50;;;;;;;;;;10068367;28;20045;-74
2024/01/07 00:53:06;;;;;;;9.52;7.93;;;;;;;;;;10059752;28;20048;-74
2024/01/07 00:57:57;;;;;;;8.32;7.25;;;;;;;;;;10031781;28;20080;-74
2024/01/07 01:02:49;;;;;;;6.75;6.15;;;;;;;;;;10033903;28;20038;-74
2024/01/07 01:07:41;;;;;;;6.43;5.82;;;;;;;;;;10032410;28;20041;-76
2024/01/07 01:12:33;;;;;;;6.78;6.18;;;;;;;;;;10031462;28;20045;-76
2024/01/07 01:17:25;;;;;;;6.47;5.88;;;;;;;;;;10032672;28;20042;-76
2024/01/07 01:22:17;;;;;;;7.05;6.35;;;;;;;;;;10033030;28;20042;-74
2024/01/07 01:27:10;;;;;;;6.68;6.07;;;;;;;;;;10029459;28;20037;-75
2024/01/07 01:32:03;;;;;;;6.97;6.38;;;;;;;;;;10064125;28;20152;-75
2024/01/07 01:36:55;;;;;;;7.15;6.05;;;;;;;;;;10069287;28;20051;-74
2024/01/07 01:41:47;;;;;;;5.60;4.90;;;;;;;;;;10068521;28;20084;-74
2024/01/07 01:46:39;;;;;;;8.95;6.45;;;;;;;;;;10068838;28;20052;-74
2024/01/07 01:51:31;;;;;;;7.40;6.70;;;;;;;;;;10068454;28;20048;-74
2024/01/07 01:56:24;;;;;;;6.22;5.05;;;;;;;;;;10043191;28;20038;-74
2024/01/07 02:01:16;;;;;;;11.75;6.47;;;;;;;;;;10020482;28;20044;-75
2024/01/07 02:06:10;;;;;;;8.30;7.43;;;;;;;;;;10016847;28;20141;-74
2024/01/07 02:11:19;;;;;;;9.32;8.13;;;;;;;;;;10045141;28;20069;-74
2024/01/07 02:16:11;;;;;;;8.77;7.80;;;;;;;;;;10029253;28;20380;-74
2024/01/07 02:21:03;;;;;;;8.52;7.65;;;;;;;;;;10029379;28;20297;-74
2024/01/07 02:25:55;;;;;;;10.55;9.38;;;;;;;;;;10029587;28;20092;-74
2024/01/07 02:30:47;;;;;;;13.60;10.52;;;;;;;;;;10030144;28;20046;-74
2024/01/07 02:35:39;;;;;;;12.93;9.77;;;;;;;;;;10030205;28;20042;-74
2024/01/07 02:40:31;;;;;;;12.50;10.40;;;;;;;;;;10028425;28;20076;-74
2024/01/07 02:45:23;;;;;;;12.70;10.15;;;;;;;;;;10030165;28;20030;-74
2024/01/07 02:50:16;;;;;;;12.63;11.25;;;;;;;;;;10027167;28;20073;-74
2024/01/07 02:55:08;;;;;;;11.98;10.75;;;;;;;;;;10029123;28;20381;-74
2024/01/07 03:00:00;;;;;;;11.65;9.93;;;;;;;;;;10027799;28;20052;-74
2024/01/07 03:04:52;;;;;;;10.73;8.75;;;;;;;;;;10029026;28;20050;-75
2024/01/07 03:09:44;;;;;;;10.70;8.57;;;;;;;;;;10028387;28;20033;-75
2024/01/07 03:14:40;;;;;;;12.50;10.07;;;;;;;;;;10028096;28;20038;-75
2024/01/07 03:19:32;;;;;;;13.32;11.18;;;;;;;;;;10027147;28;20042;-75
2024/01/07 03:24:24;;;;;;;10.77;9.52;;;;;;;;;;10030009;28;20057;-74
2024/01/07 03:29:16;;;;;;;12.18;10.20;;;;;;;;;;10027135;28;20053;-75
2024/01/07 03:34:08;;;;;;;10.82;9.07;;;;;;;;;;10028394;28;20054;-75
2024/01/07 03:39:01;;;;;;;11.60;9.75;;;;;;;;;;10027004;28;20092;-75
2024/01/07 03:43:53;;;;;;;13.05;10.05;;;;;;;;;;10029789;28;20076;-75
2024/01/07 03:48:46;;;;;;;14.50;10.02;;;;;;;;;;10027838;28;20101;-76
2024/01/07 03:53:38;;;;;;;9.25;8.35;;;;;;;;;;10027577;28;20052;-75
2024/01/07 03:58:30;;;;;;;10.63;8.63;;;;;;;;;;10027881;28;20041;-75
2024/01/07 04:03:22;;;;;;;9.68;8.68;;;;;;;;;;10027759;28;20416;-75
2024/01/07 04:08:15;;;;;;;10.65;8.95;;;;;;;;;;10027346;28;20042;-75
2024/01/07 04:13:07;;;;;;;9.95;8.93;;;;;;;;;;10026990;28;20038;-75
2024/01/07 04:18:03;;;;;;;9.27;8.32;;;;;;;;;;10027143;28;20420;-75
2024/01/07 04:22:56;;;;;;;10.85;9.85;;;;;;;;;;10029771;28;20116;-75
2024/01/07 04:27:48;;;;;;;9.63;8.63;;;;;;;;;;10026770;28;20441;-74
2024/01/07 04:32:40;;;;;;;8.27;7.45;;;;;;;;;;10027029;28;20049;-75
2024/01/07 04:37:33;;;;;;;10.23;9.25;;;;;;;;;;10027602;28;20136;-75
2024/01/07 04:42:25;;;;;;;9.27;8.38;;;;;;;;;;10032339;28;20107;-75
2024/01/07 04:47:30;;;;;;;13.57;10.43;;;;;;;;;;10033887;28;20042;-75
2024/01/07 04:52:23;;;;;;;10.85;9.75;;;;;;;;;;10033451;28;20092;-75
2024/01/07 04:57:15;;;;;;;13.55;10.45;;;;;;;;;;10033910;28;20088;-75
2024/01/07 05:02:07;;;;;;;42.17;23.92;;;;;;;;;;10033141;28;20056;-75
2024/01/07 05:06:59;;;;;;;9.75;8.75;;;;;;;;;;10033273;28;20042;-75
2024/01/07 05:11:51;;;;;;;10.23;9.23;;;;;;;;;;10032447;28;20060;-75
2024/01/07 05:16:43;;;;;;;11.07;9.15;;;;;;;;;;10031714;28;20046;-75
2024/01/07 05:21:35;;;;;;;11.68;10.48;;;;;;;;;;10034388;28;20456;-74
2024/01/07 05:26:26;;;;;;;12.32;10.05;;;;;;;;;;10033555;28;20357;-75
2024/01/07 05:31:18;;;;;;;9.27;8.30;;;;;;;;;;10031325;28;20065;-74
2024/01/07 05:36:11;;;;;;;9.30;8.40;;;;;;;;;;10031390;28;20069;-74
2024/01/07 05:41:03;;;;;;;11.02;9.80;;;;;;;;;;10031910;28;20331;-74
2024/01/07 05:45:55;;;;;;;10.65;9.38;;;;;;;;;;10035573;28;20042;-75
2024/01/07 05:50:48;;;;;;;10.23;9.23;;;;;;;;;;10039249;28;20050;-75
2024/01/07 05:55:40;;;;;;;8.23;7.43;;;;;;;;;;10031424;28;20038;-77
2024/01/07 06:00:32;;;;;;;9.70;7.80;;;;;;;;;;10030048;28;20057;-75
2024/01/07 06:05:23;;;;;;;7.38;6.68;;;;;;;;;;10031971;28;20057;-77
2024/01/07 06:10:15;;;;;;;7.45;6.55;;;;;;;;;;10029407;28;20090;-77
2024/01/07 06:15:08;;;;;;;6.93;6.22;;;;;;;;;;10030123;28;20385;-77
2024/01/07 06:20:00;;;;;;;9.90;5.88;;;;;;;;;;10028715;28;20056;-74
2024/01/07 06:24:52;;;;;;;6.32;5.72;;;;;;;;;;10030148;28;20121;-77
2024/01/07 06:29:44;;;;;;;5.57;5.03;;;;;;;;;;10029943;28;20067;-74
2024/01/07 06:34:36;;;;;;;4.60;4.20;;;;;;;;;;10028577;28;20185;-74
2024/01/07 06:39:28;;;;;;;5.80;5.22;;;;;;;;;;10035133;28;20136;-75
2024/01/07 06:44:19;;;;;;;6.57;5.85;;;;;;;;;;10029370;28;20358;-75
2024/01/07 06:49:11;;;;;;;5.47;4.88;;;;;;;;;;10029430;28;20069;-75
2024/01/07 06:54:03;;;;;;;4.63;4.22;;;;;;;;;;10028641;28;20104;-75
2024/01/07 06:58:55;;;;;;;6.45;5.18;;;;;;;;;;10029843;28;20432;-75
2024/01/07 07:03:47;;;;;;;4.55;4.15;;;;;;;;;;10027470;28;20077;-75
2024/01/07 07:08:39;;;;;;;4.18;3.78;;;;;;;;;;10028518;28;20057;-75
2024/01/07 07:13:31;;;;;;;4.68;4.28;;;;;;;;;;10028093;28;20085;-77
2024/01/07 07:18:24;;;;;;;5.88;5.32;;;;;;;;;;10028079;28;20096;-76
2024/01/07 07:23:16;;;;;;;5.78;5.22;;;;;;;;;;10028406;28;20114;-76
2024/01/07 07:28:08;;;;;;;7.28;6.18;;;;;;;;;;10027868;28;20049;-77
2024/01/07 07:33:00;;;;;;;7.57;6.88;;;;;;;;;;10052422;28;20060;-77
2024/01/07 07:37:52;;;;;;;9.38;8.25;;;;;;;;;;10064875;28;20045;-77
2024/01/07 07:42:44;;;;;;;8.32;7.38;;;;;;;;;;10064514;28;20049;-79
2024/01/07 07:47:36;;;;;;;9.15;8.20;;;;;;;;;;10063703;28;20290;-79
2024/01/07 07:52:28;;;;;;;9.63;8.73;;;;;;;;;;10063470;28;20388;-77
2024/01/07 07:57:21;;;;;;;11.95;9.85;;;;;;;;;;10063900;28;20038;-79
2024/01/07 08:02:13;;;;;;;10.02;9.10;;;;;;;;;;10063736;28;20049;-83
2024/01/07 08:07:05;;;;;;;12.10;9.18;;;;;;;;;;10063137;28;20080;-81
2024/01/07 08:11:57;;;;;;;10.90;9.80;;;;;;;;;;10063883;28;20049;-84
2024/01/07 08:16:49;;;;;;;13.20;10.27;;;;;;;;;;10068383;28;20056;-78
2024/01/07 08:21:41;;;;;;;12.98;9.10;;;;;;;;;;10071700;28;20148;-79
2024/01/07 08:26:33;;;;;;;12.48;9.75;;;;;;;;;;10071705;28;20353;-77
2024/01/07 08:31:25;;;;;;;14.25;9.40;;;;;;;;;;10070551;28;20045;-79
2024/01/07 08:36:17;;;;;;;11.98;10.80;;;;;;;;;;10070464;28;20541;-79
2024/01/07 08:41:09;;;;;;;12.75;9.80;;;;;;;;;;10070207;28;20104;-80
2024/01/07 08:46:04;;;;;;;10.07;9.02;;;;;;;;;;10067762;28;20121;-79
2024/01/07 08:50:56;;;;;;;11.50;9.40;;;;;;;;;;10069618;28;20057;-79
2024/01/07 08:55:48;;;;;;;9.82;8.82;;;;;;;;;;10050442;28;20050;-80
2024/01/07 09:00:40;;;;;;;16.77;12.13;;;;;;;;;;10045001;28;20097;-79
2024/01/07 09:05:32;;;;;;;9.98;8.98;;;;;;;;;;10056123;28;20099;-79
2024/01/07 09:10:24;;;;;;;9.52;7.97;;;;;;;;;;10053337;28;20349;-79
2024/01/07 09:15:18;;;;;;;10.10;7.50;;;;;;;;;;10051935;28;20384;-79
2024/01/07 09:20:10;;;;;;;12.10;10.90;;;;;;;;;;10065665;28;20108;-79
2024/01/07 09:25:06;;;;;;;10.95;9.82;;;;;;;;;;10068675;28;20076;-79
2024/01/07 09:29:58;;;;;;;11.20;10.20;;;;;;;;;;10076092;28;20049;-79
2024/01/07 09:34:50;;;;;;;9.43;8.57;;;;;;;;;;10067557;28;20108;-79
2024/01/07 09:39:44;;;;;;;8.98;8.18;;;;;;;;;;10064337;28;20480;-79
2024/01/07 09:44:36;;;;;;;11.77;10.60;;;;;;;;;;10068061;28;20041;-80
2024/01/07 09:49:27;;;;;;;9.63;8.63;;;;;;;;;;10053864;28;20041;-80
2024/01/07 09:54:21;;;;;;;9.27;8.38;;;;;;;;;;10068027;28;20049;-80
2024/01/07 09:59:14;;;;;;;8.50;7.70;;;;;;;;;;10067615;28;20099;-80
2024/01/07 10:04:06;;;;;;;11.25;8.27;;;;;;;;;;10046927;28;20045;-78
2024/01/07 10:08:59;;;;;;;12.68;11.38;;;;;;;;;;10053877;28;20046;-79
2024/01/07 10:13:53;;;;;;;12.13;10.40;;;;;;;;;;10030005;28;20060;-79
2024/01/07 10:18:45;;;;;;;11.80;10.65;;;;;;;;;;10029335;28;20511;-80
2024/01/07 10:23:37;;;;;;;10.77;9.68;;;;;;;;;;10034461;28;20440;-79
2024/01/07 10:28:31;;;;;;;8.50;7.47;;;;;;;;;;10036848;28;20045;-77
2024/01/07 10:33:23;;;;;;;9.75;8.75;;;;;;;;;;10032730;28;20462;-78
2024/01/07 10:38:16;;;;;;;11.18;10.02;;;;;;;;;;10042594;28;20049;-77
2024/01/07 10:43:07;;;;;;;11.15;9.98;;;;;;;;;;10052454;28;20058;-81
2024/01/07 10:48:03;;;;;;;11.20;9.82;;;;;;;;;;10038641;28;20194;-80
2024/01/07 10:53:04;;;;;;;11.57;10.48;;;;;;;;;;10019462;28;20057;-79
2024/01/07 10:57:57;;;;;;;17.65;14.10;;;;;;;;;;10023103;28;20436;-82
2024/01/07 11:03:09;;;;;;;9.93;8.93;;;;;;;;;;10021671;28;20049;-81
2024/01/07 11:08:08;;;;;;;11.68;10.45;;;;;;;;;;10028230;28;20056;-82
2024/01/07 11:13:00;;;;;;;;;;;;;;;;;;10026804;28;20081;-82
2024/01/07 11:17:52;;;;;;;11.90;10.77;;;;;;;;;;10026674;28;20348;-80
2024/01/07 11:22:44;;;;;;;11.25;9.10;;;;;;;;;;10024308;28;20579;-81
2024/01/07 11:27:36;;;;;;;11.82;10.52;;;;;;;;;;10026637;28;20046;-78
2024/01/07 11:32:33;;;;;;;13.98;12.23;;;;;;;;;;10025836;28;20054;-78
2024/01/07 11:37:25;;;;;;;10.63;9.63;;;;;;;;;;10026383;28;20073;-77
2024/01/07 11:42:17;;;;;;;15.35;13.82;;;;;;;;;;10026452;28;20572;-76
2024/01/07 11:47:09;;;;;;;15.80;13.05;;;;;;;;;;10025834;28;20041;-77
2024/01/07 11:52:02;;;;;;;10.10;8.70;;;;;;;;;;10033997;28;20050;-77
2024/01/07 11:56:54;;;;;;;9.93;8.95;;;;;;;;;;10033271;28;20065;-76
2024/01/07 12:01:46;;;;;;;13.93;12.43;;;;;;;;;;10032382;28;20054;-76
2024/01/07 12:06:39;;;;;;;11.95;10.73;;;;;;;;;;10033394;28;20046;-75
2024/01/07 12:11:31;;;;;;;14.55;11.80;;;;;;;;;;10034549;28;20088;-76
2024/01/07 12:16:23;;;;;;;18.13;13.75;;;;;;;;;;10032714;28;20461;-76
2024/01/07 12:21:21;;;;;;;11.98;10.30;;;;;;;;;;10031565;28;20046;-76
2024/01/07 12:26:13;;;;;;;12.00;10.80;;;;;;;;;;10033977;28;20449;-78
2024/01/07 12:31:06;;;;;;;22.60;20.00;;;;;;;;;;10032445;28;20081;-78
2024/01/07 12:35:58;;;;;;;12.18;10.75;;;;;;;;;;10031597;28;20057;-77
2024/01/07 12:40:50;;;;;;;11.73;10.15;;;;;;;;;;10032827;28;20041;-77
2024/01/07 12:45:42;;;;;;;11.30;10.02;;;;;;;;;;10032353;28;20403;-77
2024/01/07 12:50:34;;;;;;;12.95;11.50;;;;;;;;;;10032361;28;20042;-77
2024/01/07 12:55:26;;;;;;;10.02;9.02;;;;;;;;;;10032219;28;20477;-77
2024/01/07 13:00:18;;;;;;;12.63;9.30;;;;;;;;;;10030741;28;20046;-77
2024/01/07 13:05:10;;;;;;;10.75;9.65;;;;;;;;;;10030764;28;20120;-78
2024/01/07 13:10:03;;;;;;;13.30;11.80;;;;;;;;;;10032723;28;20044;-77
2024/01/07 13:14:55;;;;;;;12.02;10.90;;;;;;;;;;10033919;28;20046;-77
2024/01/07 13:19:47;;;;;;;9.95;9.05;;;;;;;;;;10031712;28;20109;-77
2024/01/07 13:24:40;;;;;;;9.55;8.60;;;;;;;;;;10031154;28;20038;-78
2024/01/07 13:29:33;;;;;;;13.35;7.90;;;;;;;;;;10030478;28;20520;-76
2024/01/07 13:34:25;;;;;;;11.60;9.25;;;;;;;;;;10031396;28;20556;-77
2024/01/07 13:39:17;;;;;;;11.52;10.20;;;;;;;;;;10029859;28;20045;-77
2024/01/07 13:44:17;;;;;;;8.60;7.18;;;;;;;;;;10031412;28;20050;-78
2024/01/07 13:49:09;;;;;;;8.68;7.78;;;;;;;;;;10030186;28;20436;-78
2024/01/07 13:54:02;;;;;;;9.98;9.00;;;;;;;;;;10029688;28;20108;-78
2024/01/07 13:58:56;;;;;;;10.52;8.98;;;;;;;;;;10034512;28;20038;-78
2024/01/07 14:03:48;;;;;;;7.45;6.60;;;;;;;;;;10033293;28;20507;-81
2024/01/07 14:08:40;;;;;;;10.38;8.88;;;;;;;;;;10034775;28;20440;-78
2024/01/07 14:13:31;;;;;;;8.35;7.50;;;;;;;;;;10035165;28;20096;-78
2024/01/07 14:18:23;;;;;;;10.48;9.15;;;;;;;;;;10037033;28;20042;-78
2024/01/07 14:23:15;;;;;;;8.27;6.53;;;;;;;;;;10036099;28;20049;-78
2024/01/07 14:28:07;;;;;;;8.98;8.05;;;;;;;;;;10034526;28;20042;-78
2024/01/07 14:32:59;;;;;;;11.20;9.75;;;;;;;;;;10040103;28;20049;-77
2024/01/07 14:37:55;;;;;;;14.98;11.95;;;;;;;;;;10033973;28;20381;-77
2024/01/07 14:42:47;;;;;;;17.10;13.63;;;;;;;;;;10043641;28;20079;-76
2024/01/07 14:47:39;;;;;;;17.02;15.18;;;;;;;;;;10037496;28;20049;-79
2024/01/07 14:52:31;;;;;;;11.13;7.85;;;;;;;;;;10047348;28;20037;-81
2024/01/07 14:57:23;;;;;;;9.70;8.70;;;;;;;;;;10044483;28;20091;-80
2024/01/07 15:02:15;;;;;;;13.50;12.10;;;;;;;;;;10042285;28;20619;-80
2024/01/07 15:07:07;;;;;;;8.30;7.50;;;;;;;;;;10046231;28;20073;-81
2024/01/07 15:11:59;;;;;;;9.88;8.98;;;;;;;;;;10046146;28;20045;-80
2024/01/07 15:16:54;;;;;;;8.38;7.55;;;;;;;;;;10036055;28;20388;-77
2024/01/07 15:21:47;;;;;;;17.08;13.50;;;;;;;;;;10033485;28;20092;-80
2024/01/07 15:26:39;;;;;;;11.48;10.27;;;;;;;;;;10034836;28;20524;-77
2024/01/07 15:31:31;;;;;;;11.05;9.90;;;;;;;;;;10030032;28;20050;-79
2024/01/07 15:36:23;;;;;;;15.48;13.35;;;;;;;;;;10035381;28;20099;-79
2024/01/07 15:41:15;;;;;;;11.93;10.68;;;;;;;;;;10037678;28;20049;-80
2024/01/07 15:46:07;;;;;;;12.68;11.38;;;;;;;;;;10030586;28;20408;-78
2024/01/07 15:50:59;;;;;;;19.15;15.07;;;;;;;;;;10038224;28;20073;-80
2024/01/07 15:55:51;;;;;;;14.25;12.75;;;;;;;;;;10042639;28;20133;-80
2024/01/07 16:00:43;;;;;;;12.43;11.18;;;;;;;;;;10034828;28;20046;-78
2024/01/07 16:05:36;;;;;;;12.30;11.07;;;;;;;;;;10034076;28;20077;-78
2024/01/07 16:10:28;;;;;;;11.48;9.23;;;;;;;;;;10033510;28;20042;-78
2024/01/07 16:15:20;;;;;;;13.07;11.80;;;;;;;;;;10040021;28;20062;-77
2024/01/07 16:20:12;;;;;;;14.85;13.35;;;;;;;;;;10025798;28;20459;-78
2024/01/07 16:25:06;;;;;;;15.02;13.52;;;;;;;;;;10035513;28;20045;-78
2024/01/07 16:29:58;;;;;;;12.45;10.55;;;;;;;;;;10036963;28;20042;-78
2024/01/07 16:34:50;;;;;;;15.23;13.45;;;;;;;;;;10029865;28;20057;-77
2024/01/07 16:39:42;;;;;;;25.77;20.42;;;;;;;;;;10043294;28;20037;-78
2024/01/07 16:44:34;;;;;;;38.03;31.75;;;;;;;;;;10038620;28;20122;-78
2024/01/07 16:49:27;;;;;;;13.27;11.90;;;;;;;;;;10045051;28;20046;-78
2024/01/07 16:54:21;;;;;;;12.57;11.27;;;;;;;;;;10040268;28;20046;-80
2024/01/07 16:59:14;;;;;;;11.80;10.32;;;;;;;;;;10035181;28;20127;-76
2024/01/07 17:04:06;;;;;;;10.93;9.85;;;;;;;;;;10051770;28;20060;-75
2024/01/07 17:08:58;;;;;;;12.00;10.80;;;;;;;;;;10041494;28;20046;-76
2024/01/07 17:13:50;;;;;;;15.27;13.68;;;;;;;;;;10042076;28;20417;-76
2024/01/07 17:18:42;;;;;;;14.85;13.45;;;;;;;;;;10034931;28;20084;-77
2024/01/07 17:23:34;;;;;;;13.95;10.68;;;;;;;;;;10031542;28;20428;-75
2024/01/07 17:28:26;;;;;;;13.05;11.90;;;;;;;;;;10044093;28;20121;-75
2024/01/07 17:33:18;;;;;;;13.27;11.98;;;;;;;;;;10049593;28;20115;-75
2024/01/07 17:38:10;;;;;;;13.02;11.82;;;;;;;;;;10031036;28;20471;-75
2024/01/07 17:43:03;;;;;;;13.88;12.45;;;;;;;;;;10030429;28;20080;-75
2024/01/07 17:47:55;;;;;;;12.25;11.15;;;;;;;;;;10033418;28;20530;-74
2024/01/07 17:52:47;;;;;;;12.68;11.35;;;;;;;;;;10037672;28;20082;-74
2024/01/07 17:57:39;;;;;;;14.63;13.05;;;;;;;;;;10045851;28;20121;-75
2024/01/07 18:02:31;;;;;;;13.18;11.88;;;;;;;;;;10044913;28;20048;-74
2024/01/07 18:07:23;;;;;;;13.10;11.88;;;;;;;;;;10038940;28;20061;-75
2024/01/07 18:12:16;;;;;;;16.90;11.27;;;;;;;;;;10030275;28;20045;-75
2024/01/07 18:17:08;;;;;;;10.20;9.15;;;;;;;;;;10046271;28;20452;-75
2024/01/07 18:22:00;;;;;;;9.60;8.60;;;;;;;;;;10031292;28;20046;-75
2024/01/07 18:26:55;;;;;;;11.82;7.53;;;;;;;;;;10040932;28;20431;-76
2024/01/07 18:31:47;;;;;;;7.70;6.55;;;;;;;;;;10026884;28;20061;-75
2024/01/07 18:36:40;;;;;;;6.25;5.53;;;;;;;;;;10041157;28;20132;-76
2024/01/07 18:41:32;;;;;;;4.90;4.45;;;;;;;;;;10035138;28;20038;-75
2024/01/07 18:46:24;;;;;;;6.55;5.80;;;;;;;;;;10041189;28;20041;-73
2024/01/07 18:51:16;;;;;;;6.25;5.65;;;;;;;;;;10043954;28;20042;-75
2024/01/07 18:56:08;;;;;;;5.43;4.93;;;;;;;;;;10043961;28;20046;-75
2024/01/07 19:01:00;;;;;;;5.63;4.90;;;;;;;;;;10047889;28;20392;-79
2024/01/07 19:05:52;;;;;;;12.35;8.88;;;;;;;;;;10047128;28;20049;-74
2024/01/07 19:10:44;;;;;;;9.00;8.13;;;;;;;;;;10042119;28;20061;-75
2024/01/07 19:15:37;;;;;;;12.48;11.27;;;;;;;;;;10042539;28;20141;-76
2024/01/07 19:20:32;;;;;;;14.82;13.32;;;;;;;;;;10031232;28;20104;-74
2024/01/07 19:25:24;;;;;;;10.90;9.75;;;;;;;;;;10041171;28;20038;-74
2024/01/07 19:30:15;;;;;;;10.68;9.57;;;;;;;;;;10038359;28;20491;-75
2024/01/07 19:35:07;;;;;;;10.68;9.68;;;;;;;;;;10026318;28;20141;-74
2024/01/07 19:40:00;;;;;;;8.40;7.60;;;;;;;;;;10043837;28;20498;-75
2024/01/07 19:44:53;;;;;;;9.15;8.32;;;;;;;;;;10046956;28;20053;-74
2024/01/07 19:49:45;;;;;;;13.98;11.07;;;;;;;;;;10045991;28;20049;-75
2024/01/07 19:54:37;;;;;;;9.65;8.75;;;;;;;;;;10040169;28;20484;-74
2024/01/07 19:59:29;;;;;;;7.07;6.35;;;;;;;;;;10042251;28;20046;-74
2024/01/07 20:04:23;;;;;;;5.85;5.35;;;;;;;;;;10043565;28;20144;-74
2024/01/07 20:09:16;;;;;;;7.18;6.13;;;;;;;;;;10049756;28;20052;-74
2024/01/07 20:14:09;;;;;;;5.10;4.53;;;;;;;;;;10047153;28;20122;-74
2024/01/07 20:19:01;;;;;;;5.20;4.70;;;;;;;;;;10047636;28;20417;-77
2024/01/07 20:23:58;;;;;;;3.90;3.50;;;;;;;;;;10045006;28;20034;-78
2024/01/07 20:28:50;;;;;;;3.90;3.60;;;;;;;;;;10048992;28;20083;-74
2024/01/07 20:33:44;;;;;;;9.38;6.97;;;;;;;;;;10043651;28;20120;-72
2024/01/07 20:38:36;;;;;;;4.38;3.85;;;;;;;;;;10034674;28;20045;-72
2024/01/07 20:43:28;;;;;;;5.00;4.47;;;;;;;;;;10039836;28;20081;-72
2024/01/07 20:48:20;;;;;;;7.40;6.63;;;;;;;;;;10040656;28;20508;-74
2024/01/07 20:53:12;;;;;;;6.45;5.82;;;;;;;;;;10038254;28;20045;-74
2024/01/07 20:58:04;;;;;;;6.32;5.50;;;;;;;;;;10032807;28;20084;-74
2024/01/07 21:02:55;;;;;;;6.55;5.85;;;;;;;;;;10035449;28;20335;-73
2024/01/07 21:07:47;;;;;;;5.63;5.00;;;;;;;;;;10033736;28;20081;-73
2024/01/07 21:12:39;;;;;;;4.82;4.43;;;;;;;;;;10047419;28;20041;-74
2024/01/07 21:17:31;;;;;;;7.45;6.43;;;;;;;;;;10054518;28;20049;-74
2024/01/07 21:22:24;;;;;;;6.22;5.63;;;;;;;;;;10048003;28;20491;-74
2024/01/07 21:27:16;;;;;;;9.93;7.30;;;;;;;;;;10056352;28;20071;-74
2024/01/07 21:32:08;;;;;;;14.68;10.65;;;;;;;;;;10052619;28;20042;-74
2024/01/07 21:37:00;;;;;;;8.40;6.93;;;;;;;;;;10053795;28;20050;-74
2024/01/07 21:41:52;;;;;;;10.75;7.78;;;;;;;;;;10060015;28;20140;-74
2024/01/07 21:46:45;;;;;;;14.55;10.80;;;;;;;;;;10067456;28;20195;-74
2024/01/07 21:51:37;;;;;;;8.55;6.75;;;;;;;;;;10067458;28;20191;-74
2024/01/07 21:56:29;;;;;;;8.48;7.32;;;;;;;;;;10066979;28;20135;-74
2024/01/07 22:01:21;;;;;;;8.10;7.25;;;;;;;;;;10066473;28;20064;-74
2024/01/07 22:06:13;;;;;;;9.50;6.85;;;;;;;;;;10067229;28;20368;-74
2024/01/07 22:11:12;;;;;;;7.43;6.72;;;;;;;;;;10066982;28;20116;-74
2024/01/07 22:16:10;;;;;;;5.78;5.28;;;;;;;;;;10066618;28;20049;-74
2024/01/07 22:21:01;;;;;;;9.82;8.85;;;;;;;;;;10067558;28;20042;-74
2024/01/07 22:25:53;;;;;;;11.13;9.98;;;;;;;;;;10066355;28;20087;-74
2024/01/07 22:30:45;;;;;;;8.00;7.25;;;;;;;;;;10067286;28;20060;-74
2024/01/07 22:35:37;;;;;;;9.55;8.57;;;;;;;;;;10065496;28;20058;-74
2024/01/07 22:40:31;;;;;;;6.00;5.40;;;;;;;;;;10066211;28;20136;-74
2024/01/07 22:45:25;;;;;;;7.10;6.43;;;;;;;;;;10065887;28;20172;-74
2024/01/07 22:50:17;;;;;;;8.43;7.63;;;;;;;;;;10066222;28;20053;-73
2024/01/07 22:55:09;;;;;;;8.20;7.45;;;;;;;;;;10050064;28;20063;-74
2024/01/07 23:00:01;;;;;;;7.50;6.80;;;;;;;;;;10065656;28;20495;-74
2024/01/07 23:04:53;;;;;;;8.32;7.53;;;;;;;;;;10065901;28;20045;-74
2024/01/07 23:09:45;;;;;;;9.15;6.60;;;;;;;;;;10065134;28;20045;-74
2024/01/07 23:14:37;;;;;;;7.68;6.95;;;;;;;;;;10063219;28;20468;-74
2024/01/07 23:19:29;;;;;;;7.30;6.60;;;;;;;;;;10065379;28;20045;-74
2024/01/07 23:24:21;;;;;;;8.35;7.47;;;;;;;;;;10064850;28;20044;-74
2024/01/07 23:29:12;;;;;;;7.88;7.05;;;;;;;;;;10065520;28;20165;-74
2024/01/07 23:34:04;;;;;;;7.47;6.78;;;;;;;;;;10065117;28;20051;-74
2024/01/07 23:38:57;;;;;;;7.43;5.97;;;;;;;;;;10049156;28;20091;-74
2024/01/07 23:43:50;;;;;;;7.00;6.40;;;;;;;;;;10046484;28;20045;-74
2024/01/07 23:48:43;;;;;;;6.40;5.80;;;;;;;;;;10075982;28;20476;-73
2024/01/07 23:53:35;;;;;;;6.85;6.25;;;;;;;;;;10076703;28;20037;-74
2024/01/07 23:58:27;;;;;;;6.90;6.20;;;;;;;;;;10060596;28;20124;-73
